Time;durP1;ratioP1;P1;durP2;ratioP2;P2;SDS_P1;SDS_P2;PMS_P1;PMS_P2;Temp;Humidity;BMP_temperature;BMP_pressure;BME280_temperature;BME280_humidity;BME280_pressure;Samples;Min_cycle;Max_cycle;Signal;HPM_P1;HPM_P2
2023/10/03 00:00:56;;;;;;;0.00;0.00;;;;;;;15.09;100.00;96496.59;4990067;28;20061;-86
2023/10/03 00:03:41;;;;;;;0.10;0.10;;;;;;;15.06;100.00;96499.88;4972140;28;20060;-85
2023/10/03 00:06:27;;;;;;;0.00;0.00;;;;;;;15.08;100.00;96491.50;4990426;28;20168;-84
2023/10/03 00:09:13;;;;;;;0.10;0.10;;;;;;;15.03;100.00;96486.94;4990009;28;20042;-84
2023/10/03 00:11:59;;;;;;;0.10;0.10;;;;;;;15.09;100.00;96490.41;4989669;28;20058;-87
2023/10/03 00:14:46;;;;;;;0.00;0.00;;;;;;;15.07;100.00;96485.31;4984584;28;20062;-88
2023/10/03 00:17:32;;;;;;;0.00;0.00;;;;;;;15.12;100.00;96481.78;4991969;28;20077;-86
2023/10/03 00:20:18;;;;;;;0.00;0.00;;;;;;;15.08;100.00;96480.72;4989843;28;20034;-86
2023/10/03 00:23:05;;;;;;;0.00;0.00;;;;;;;15.03;100.00;96468.09;4989561;28;20928;-84
2023/10/03 00:25:53;;;;;;;0.00;0.00;;;;;;;15.04;100.00;96458.91;4988948;28;20070;-88
2023/10/03 00:28:39;;;;;;;0.00;0.00;;;;;;;15.07;100.00;96463.75;4988146;28;20057;-87
2023/10/03 00:31:25;;;;;;;0.10;0.10;;;;;;;15.07;100.00;96458.34;4986986;28;20672;-87
2023/10/03 00:34:12;;;;;;;0.00;0.00;;;;;;;15.03;100.00;96454.63;4976444;28;20053;-88
2023/10/03 00:36:58;;;;;;;0.00;0.00;;;;;;;15.07;100.00;96460.25;4990886;28;20805;-86
2023/10/03 00:39:44;;;;;;;0.00;0.00;;;;;;;15.04;100.00;96464.31;4988754;28;20065;-84
2023/10/03 00:42:31;;;;;;;0.00;0.00;;;;;;;15.00;100.00;96449.75;4974814;28;20052;-85
2023/10/03 00:45:21;;;;;;;0.00;0.00;;;;;;;15.03;100.00;96454.63;4989612;28;20038;-84
2023/10/03 00:48:08;;;;;;;0.10;0.10;;;;;;;15.05;100.00;96450.56;4988841;28;20601;-82
2023/10/03 00:50:55;;;;;;;0.00;0.00;;;;;;;15.03;100.00;96443.84;4975714;28;20053;-82
2023/10/03 00:53:43;;;;;;;0.00;0.00;;;;;;;15.01;100.00;96441.41;4975267;28;20046;-83
2023/10/03 00:56:30;;;;;;;0.03;0.03;;;;;;;14.98;100.00;96447.34;4979004;28;20053;-83
2023/10/03 00:59:17;;;;;;;0.10;0.10;;;;;;;14.96;100.00;96432.56;4988026;28;20840;-83
2023/10/03 01:02:06;;;;;;;0.03;0.03;;;;;;;14.96;100.00;96433.34;4987449;28;20631;-84
2023/10/03 01:04:53;;;;;;;0.00;0.00;;;;;;;14.96;100.00;96427.16;4988994;28;20052;-84
2023/10/03 01:07:39;;;;;;;0.00;0.00;;;;;;;14.96;100.00;96416.38;4991246;28;20144;-86
2023/10/03 01:10:25;;;;;;;0.10;0.10;;;;;;;14.93;100.00;96417.72;4987790;28;20656;-85
2023/10/03 01:13:14;;;;;;;0.03;0.03;;;;;;;14.93;100.00;96414.22;4988317;28;20069;-88
2023/10/03 01:16:00;;;;;;;0.10;0.10;;;;;;;14.94;100.00;96408.59;4990351;28;20922;-84
2023/10/03 01:18:47;;;;;;;0.10;0.10;;;;;;;14.89;100.00;96407.78;5015994;28;20037;-82
2023/10/03 01:21:34;;;;;;;0.10;0.10;;;;;;;14.82;100.00;96410.78;5003343;28;20053;-82
2023/10/03 01:24:20;;;;;;;0.00;0.00;;;;;;;14.82;100.00;96410.78;4993955;28;20061;-87
2023/10/03 01:27:07;;;;;;;0.10;0.10;;;;;;;14.79;100.00;96410.53;4993204;28;20042;-86
2023/10/03 01:29:52;;;;;;;0.10;0.10;;;;;;;14.88;100.00;96401.59;4972407;28;20046;-86
2023/10/03 01:32:59;;;;;;;0.10;0.10;;;;;;;14.88;100.00;96407.00;4974219;28;20050;-85
2023/10/03 01:35:46;;;;;;;0.00;0.00;;;;;;;14.86;100.00;96405.63;4970572;28;21123;-88
2023/10/03 01:38:32;;;;;;;0.00;0.00;;;;;;;14.87;100.00;96388.41;4986414;28;20157;-87
2023/10/03 01:41:18;;;;;;;0.10;0.10;;;;;;;14.85;100.00;96398.66;4988367;28;20071;-85
2023/10/03 01:44:04;;;;;;;0.00;0.00;;;;;;;14.85;100.00;96385.19;4986705;28;20709;-88
2023/10/03 01:46:50;;;;;;;0.10;0.10;;;;;;;14.86;100.00;96400.25;4990306;28;20832;-87
2023/10/03 01:49:35;;;;;;;0.05;0.05;;;;;;;14.87;100.00;96399.19;4991691;28;20034;-88
2023/10/03 01:52:21;;;;;;;0.10;0.10;;;;;;;14.85;100.00;96377.91;4978473;28;20038;-86
2023/10/03 01:55:12;;;;;;;0.00;0.00;;;;;;;14.96;100.00;96376.78;4990710;28;20786;-88
2023/10/03 01:57:58;;;;;;;;;;;;;;;15.09;100.00;96361.88;4992089;28;20030;-86
2023/10/03 02:00:45;;;;;;;0.10;0.10;;;;;;;15.17;100.00;96358.56;4976811;28;20430;-85
2023/10/03 02:03:32;;;;;;;0.00;0.00;;;;;;;15.20;100.00;96360.72;4976301;28;20175;-88
2023/10/03 02:06:20;;;;;;;0.00;0.00;;;;;;;15.20;100.00;96359.94;4990190;28;20041;-87
2023/10/03 02:09:08;;;;;;;0.00;0.00;;;;;;;15.23;100.00;96349.38;4977732;28;20038;-89
2023/10/03 02:11:54;;;;;;;0.00;0.00;;;;;;;15.23;100.00;96346.69;4992838;28;20050;-87
2023/10/03 02:14:40;;;;;;;0.00;0.00;;;;;;;15.24;100.00;96350.19;4989282;28;20148;-89
2023/10/03 02:17:28;;;;;;;0.10;0.10;;;;;;;15.29;100.00;96345.56;4980879;28;20551;-87
2023/10/03 02:20:19;;;;;;;0.00;0.00;;;;;;;15.32;100.00;96336.09;4994586;28;20037;-89
2023/10/03 02:23:05;;;;;;;0.10;0.10;;;;;;;15.40;100.00;96329.31;4993482;28;20041;-90
2023/10/03 02:26:06;;;;;;;0.00;0.00;;;;;;;15.41;100.00;96336.31;4993467;28;20733;-88
2023/10/03 02:28:54;;;;;;;0.10;0.10;;;;;;;15.41;100.00;96309.34;4973091;28;20038;-85
2023/10/03 02:31:40;;;;;;;0.00;0.00;;;;;;;15.52;100.00;96303.59;5001823;28;20061;-85
2023/10/03 02:34:26;;;;;;;0.10;0.10;;;;;;;15.56;100.00;96306.50;5005508;28;20030;-87
2023/10/03 02:37:12;;;;;;;0.10;0.10;;;;;;;15.51;100.00;96282.31;4993263;28;20049;-87
2023/10/03 02:40:00;;;;;;;0.10;0.10;;;;;;;15.47;100.00;96303.63;4990146;28;20041;-88
2023/10/03 02:42:46;;;;;;;0.10;0.10;;;;;;;15.36;100.00;96306.72;4975924;28;20456;-86
2023/10/03 02:45:32;;;;;;;0.10;0.10;;;;;;;15.26;100.00;96297.63;4974951;28;20048;-86
2023/10/03 02:48:21;;;;;;;0.00;0.00;;;;;;;15.14;100.00;96294.47;4992907;28;20153;-90
2023/10/03 02:51:09;;;;;;;0.10;0.10;;;;;;;15.00;100.00;96291.59;4976091;28;20077;-90
2023/10/03 02:53:55;;;;;;;0.10;0.10;;;;;;;14.95;100.00;96277.38;4973341;28;20042;-86
2023/10/03 02:56:42;;;;;;;0.10;0.10;;;;;;;14.86;100.00;96270.94;4978491;28;20057;-86
2023/10/03 02:59:28;;;;;;;0.00;0.00;;;;;;;14.71;100.00;96259.22;4991207;28;20053;-88
2023/10/03 03:02:14;;;;;;;0.10;0.10;;;;;;;14.64;100.00;96272.19;4989426;28;20078;-86
2023/10/03 03:05:04;;;;;;;0.00;0.00;;;;;;;14.59;100.00;96269.50;4977379;28;20725;-85
2023/10/03 03:07:57;;;;;;;0.10;0.10;;;;;;;14.50;100.00;96284.66;4976810;28;20795;-87
2023/10/03 03:10:55;;;;;;;0.00;0.00;;;;;;;14.37;100.00;96274.44;4973098;28;20050;-89
2023/10/03 03:13:41;;;;;;;0.00;0.00;;;;;;;14.33;100.00;96270.72;4989395;28;20034;-86
2023/10/03 03:16:27;;;;;;;0.10;0.10;;;;;;;14.32;100.00;96266.38;4988880;28;20041;-87
2023/10/03 03:19:14;;;;;;;0.03;0.03;;;;;;;14.39;100.00;96238.09;4991508;28;20591;-88
2023/10/03 03:22:04;;;;;;;0.10;0.10;;;;;;;14.48;100.00;96249.13;4992378;28;20057;-87
2023/10/03 03:24:52;;;;;;;0.00;0.00;;;;;;;14.50;100.00;96252.34;4989117;28;20039;-87
2023/10/03 03:27:41;;;;;;;0.10;0.10;;;;;;;14.51;100.00;96256.63;4990866;28;20132;-89
2023/10/03 03:33:14;;;;;;;0.05;0.05;;;;;;;14.42;100.00;96260.97;4991840;28;20552;-88
2023/10/03 03:36:01;;;;;;;0.10;0.10;;;;;;;14.34;100.00;96250.78;4989270;28;20510;-87
2023/10/03 03:38:48;;;;;;;0.10;0.10;;;;;;;14.30;100.00;96236.25;4988064;28;20050;-86
2023/10/03 03:41:34;;;;;;;0.10;0.10;;;;;;;14.33;100.00;96231.16;4989739;28;20049;-86
2023/10/03 03:44:21;;;;;;;0.10;0.10;;;;;;;14.34;100.00;96234.63;4988202;28;20126;-87
2023/10/03 03:47:07;;;;;;;0.10;0.10;;;;;;;14.43;100.00;96238.34;4987279;28;20052;-86
2023/10/03 03:49:53;;;;;;;0.00;0.00;;;;;;;14.54;100.00;96248.00;4988498;28;20045;-87
2023/10/03 03:52:40;;;;;;;0.00;0.00;;;;;;;14.53;100.00;96240.19;4989604;28;20049;-85
2023/10/03 03:55:29;;;;;;;0.10;0.10;;;;;;;14.52;100.00;96228.63;4991314;28;20527;-84
2023/10/03 03:58:18;;;;;;;0.10;0.10;;;;;;;14.54;100.00;96237.22;4988788;28;20536;-88
2023/10/03 04:01:11;;;;;;;0.03;0.03;;;;;;;14.56;100.00;96240.47;4987300;28;20319;-88
2023/10/03 04:03:59;;;;;;;0.05;0.05;;;;;;;14.54;100.00;96225.66;4991423;28;20064;-84
2023/10/03 04:06:45;;;;;;;0.00;0.00;;;;;;;14.55;100.00;96233.44;4993782;28;20124;-84
2023/10/03 04:09:31;;;;;;;0.10;0.10;;;;;;;14.60;100.00;96236.13;4989359;28;20048;-84
2023/10/03 04:12:18;;;;;;;0.10;0.10;;;;;;;14.63;100.00;96245.50;4991727;28;20048;-88
2023/10/03 04:15:05;;;;;;;0.10;0.10;;;;;;;14.58;100.00;96245.56;4989044;28;20149;-86
2023/10/03 04:17:51;;;;;;;0.10;0.10;;;;;;;14.53;100.00;96235.63;4989241;28;20052;-84
2023/10/03 04:20:40;;;;;;;0.10;0.10;;;;;;;14.52;100.00;96222.44;4991341;28;20629;-87
2023/10/03 04:23:27;;;;;;;0.10;0.10;;;;;;;14.53;100.00;96224.84;4990642;28;20100;-87
2023/10/03 04:26:13;;;;;;;0.10;0.10;;;;;;;14.55;100.00;96221.88;4991019;28;20038;-86
2023/10/03 04:28:58;;;;;;;0.10;0.10;;;;;;;14.51;100.00;96240.47;4988900;28;20061;-85
2023/10/03 04:31:46;;;;;;;0.10;0.10;;;;;;;14.42;100.00;96236.75;4990624;28;20062;-87
2023/10/03 04:34:32;;;;;;;0.10;0.10;;;;;;;14.33;100.00;96225.75;4995749;28;20053;-84
2023/10/03 04:37:19;;;;;;;0.10;0.10;;;;;;;14.30;100.00;96220.91;5017900;28;20038;-83
2023/10/03 04:40:06;;;;;;;0.10;0.10;;;;;;;14.37;100.00;96220.63;5018833;28;20046;-85
2023/10/03 04:42:53;;;;;;;0.10;0.10;;;;;;;14.38;100.00;96214.13;4990218;28;20054;-83
2023/10/03 04:45:39;;;;;;;0.00;0.00;;;;;;;14.33;100.00;96204.22;4976869;28;20048;-86
2023/10/03 04:48:25;;;;;;;0.10;0.10;;;;;;;14.28;100.00;96200.75;4992162;28;20046;-84
2023/10/03 04:51:14;;;;;;;0.10;0.10;;;;;;;14.27;100.00;96205.34;4992586;28;20179;-85
2023/10/03 04:54:00;;;;;;;0.10;0.10;;;;;;;14.26;100.00;96197.53;4990472;28;20042;-86
2023/10/03 04:56:48;;;;;;;0.08;0.08;;;;;;;14.27;100.00;96199.16;4990533;28;20042;-87
2023/10/03 04:59:34;;;;;;;0.10;0.10;;;;;;;14.18;100.00;96190.84;4993553;28;20049;-88
2023/10/03 05:02:20;;;;;;;0.10;0.10;;;;;;;14.14;100.00;96182.50;4975291;28;20125;-84
2023/10/03 05:05:06;;;;;;;0.10;0.10;;;;;;;14.22;100.00;96187.31;4991071;28;20108;-86
2023/10/03 05:07:56;;;;;;;0.00;0.00;;;;;;;14.28;100.00;96195.38;4989782;28;20084;-89
2023/10/03 05:10:42;;;;;;;0.10;0.10;;;;;;;14.35;100.00;96202.06;4991281;28;20042;-87
2023/10/03 05:13:28;;;;;;;0.10;0.10;;;;;;;14.32;100.00;96202.63;4975203;28;20073;-86
2023/10/03 05:16:17;;;;;;;0.10;0.10;;;;;;;14.41;100.00;96214.41;4993110;28;20046;-84
2023/10/03 05:19:04;;;;;;;0.10;0.10;;;;;;;14.49;100.00;96218.44;4991089;28;20413;-87
2023/10/03 05:21:50;;;;;;;0.10;0.10;;;;;;;14.54;100.00;96218.38;4989522;28;20050;-84
2023/10/03 05:24:36;;;;;;;0.10;0.10;;;;;;;14.63;100.00;96208.66;4988196;28;20092;-88
2023/10/03 05:27:22;;;;;;;0.10;0.10;;;;;;;14.90;100.00;96204.66;4992236;28;20103;-84
2023/10/03 05:30:14;;;;;;;0.10;0.10;;;;;;;15.06;100.00;96206.16;4990553;28;20131;-86
2023/10/03 05:33:00;;;;;;;0.00;0.00;;;;;;;15.11;100.00;96216.91;4994361;28;20049;-87
2023/10/03 05:35:48;;;;;;;0.10;0.10;;;;;;;15.19;100.00;96221.66;5003203;28;20054;-86
2023/10/03 05:38:34;;;;;;;0.10;0.10;;;;;;;15.36;100.00;96223.94;4996500;28;20133;-85
2023/10/03 05:41:21;;;;;;;0.10;0.10;;;;;;;15.30;100.00;96233.97;4991413;28;20053;-85
2023/10/03 05:44:11;;;;;;;0.10;0.10;;;;;;;15.36;100.00;96242.81;4987639;28;20038;-86
2023/10/03 05:46:57;;;;;;;0.10;0.10;;;;;;;15.42;100.00;96252.47;4988850;28;20037;-84
2023/10/03 05:49:43;;;;;;;0.10;0.10;;;;;;;15.50;100.00;96253.75;4987424;28;20627;-85
2023/10/03 05:52:29;;;;;;;0.10;0.10;;;;;;;15.57;100.00;96246.94;4975175;28;20046;-85
2023/10/03 05:55:15;;;;;;;0.10;0.10;;;;;;;15.75;100.00;96256.19;4991410;28;20688;-86
2023/10/03 05:58:02;;;;;;;0.10;0.10;;;;;;;15.88;100.00;96252.84;4991076;28;20817;-85
2023/10/03 06:00:47;;;;;;;0.10;0.10;;;;;;;15.90;100.00;96254.44;4988868;28;20080;-84
2023/10/03 06:03:33;;;;;;;0.10;0.10;;;;;;;15.93;100.00;96246.56;4988291;28;20108;-85
2023/10/03 06:06:21;;;;;;;0.10;0.10;;;;;;;15.93;100.00;96249.25;4990450;28;20370;-87
2023/10/03 06:09:10;;;;;;;0.10;0.10;;;;;;;16.03;100.00;96257.25;4989173;28;20596;-87
2023/10/03 06:11:56;;;;;;;0.10;0.10;;;;;;;16.16;100.00;96272.72;4975011;28;20057;-88
2023/10/03 06:14:42;;;;;;;0.10;0.10;;;;;;;16.16;100.00;96261.94;4977807;28;20439;-84
2023/10/03 06:17:28;;;;;;;0.10;0.10;;;;;;;16.22;100.00;96265.38;4989187;28;20790;-88
2023/10/03 06:20:14;;;;;;;0.10;0.10;;;;;;;16.32;100.00;96246.34;4991511;28;20045;-87
2023/10/03 06:23:00;;;;;;;0.10;0.10;;;;;;;16.38;100.00;96253.28;4987446;28;20041;-88
2023/10/03 06:25:49;;;;;;;0.05;0.05;;;;;;;16.39;100.00;96254.09;4989734;28;20052;-85
2023/10/03 06:28:35;;;;;;;0.10;0.10;;;;;;;16.41;100.00;96263.50;4989162;28;21031;-88
2023/10/03 06:31:21;;;;;;;0.08;0.08;;;;;;;16.41;100.00;96274.31;4988437;28;20077;-85
2023/10/03 06:34:07;;;;;;;0.10;0.10;;;;;;;16.38;100.00;96260.59;4992270;28;20137;-88
2023/10/03 06:36:52;;;;;;;0.10;0.10;;;;;;;16.36;100.00;96247.41;4991176;28;20104;-84
2023/10/03 06:39:39;;;;;;;0.00;0.00;;;;;;;16.37;100.00;96257.09;4994246;28;20100;-85
2023/10/03 06:42:26;;;;;;;0.10;0.10;;;;;;;16.40;100.00;96269.19;4992736;28;20044;-84
2023/10/03 06:45:13;;;;;;;0.10;0.10;;;;;;;16.47;100.00;96277.75;4992507;28;20050;-86
2023/10/03 06:48:03;;;;;;;0.10;0.10;;;;;;;16.43;100.00;96287.53;4992656;28;20042;-88
2023/10/03 06:50:50;;;;;;;0.00;0.00;;;;;;;16.44;100.00;96289.94;4981015;28;20077;-85
2023/10/03 06:53:36;;;;;;;0.10;0.10;;;;;;;16.41;100.00;96293.22;4991701;28;20061;-82
2023/10/03 06:56:22;;;;;;;0.10;0.10;;;;;;;16.53;100.00;96289.31;4993183;28;20042;-84
2023/10/03 06:59:10;;;;;;;0.10;0.10;;;;;;;16.56;100.00;96284.09;4991027;28;20125;-85
2023/10/03 07:01:56;;;;;;;0.10;0.10;;;;;;;16.69;100.00;96285.34;4989953;28;20044;-83
2023/10/03 07:04:42;;;;;;;0.00;0.00;;;;;;;16.79;100.00;96279.78;4990436;28;20120;-86
2023/10/03 07:07:28;;;;;;;0.03;0.03;;;;;;;16.85;100.00;96307.53;4992250;28;20038;-86
2023/10/03 07:10:13;;;;;;;0.00;0.00;;;;;;;17.13;100.00;96305.78;4993307;28;20037;-85
2023/10/03 07:13:01;;;;;;;0.10;0.10;;;;;;;17.05;100.00;96298.34;4990913;28;20081;-86
2023/10/03 07:15:47;;;;;;;0.10;0.10;;;;;;;17.07;100.00;96290.75;4991961;28;21205;-83
2023/10/03 07:18:35;;;;;;;0.10;0.10;;;;;;;17.04;100.00;96283.19;4991677;28;20042;-82
2023/10/03 07:21:22;;;;;;;0.10;0.10;;;;;;;17.05;100.00;96301.03;4992941;28;20041;-84
2023/10/03 07:24:08;;;;;;;0.08;0.08;;;;;;;16.91;100.00;96306.38;4991032;28;20064;-85
2023/10/03 07:26:54;;;;;;;0.00;0.00;;;;;;;16.86;100.00;96285.63;4993780;28;20054;-84
2023/10/03 07:29:42;;;;;;;0.08;0.08;;;;;;;16.74;100.00;96282.56;4992159;28;20144;-85
2023/10/03 07:32:32;;;;;;;0.00;0.00;;;;;;;16.77;100.00;96287.38;4990989;28;20085;-84
2023/10/03 07:35:19;;;;;;;0.10;0.10;;;;;;;16.74;100.00;96285.28;4990008;28;20121;-84
2023/10/03 07:38:05;;;;;;;0.10;0.10;;;;;;;16.90;100.00;96321.78;4990238;28;20578;-85
2023/10/03 07:40:51;;;;;;;0.10;0.10;;;;;;;17.04;100.00;96312.94;4991483;28;20056;-87
2023/10/03 07:43:37;;;;;;;0.10;0.10;;;;;;;17.14;100.00;96339.84;4990277;28;20038;-86
2023/10/03 07:46:25;;;;;;;0.10;0.10;;;;;;;17.35;100.00;96335.69;4987637;28;20052;-84
2023/10/03 07:49:10;;;;;;;0.10;0.10;;;;;;;17.45;100.00;96340.97;4990052;28;20033;-85
2023/10/03 07:51:59;;;;;;;0.10;0.10;;;;;;;17.69;100.00;96335.44;4991970;28;20552;-86
2023/10/03 07:54:48;;;;;;;0.10;0.10;;;;;;;17.69;100.00;96354.38;5002198;28;20057;-83
2023/10/03 07:57:37;;;;;;;0.10;0.10;;;;;;;17.47;100.00;96351.50;5008755;28;20049;-84
2023/10/03 08:00:26;;;;;;;0.10;0.10;;;;;;;17.60;100.00;96347.25;4996915;28;20713;-85
2023/10/03 08:03:12;;;;;;;0.10;0.10;;;;;;;17.38;100.00;96332.44;4991974;28;20120;-85
2023/10/03 08:05:58;;;;;;;0.10;0.10;;;;;;;17.51;100.00;96334.38;4990503;28;20061;-84
2023/10/03 08:08:44;;;;;;;0.00;0.00;;;;;;;17.56;100.00;96333.47;4989835;28;20828;-86
2023/10/03 08:11:31;;;;;;;0.10;0.10;;;;;;;17.47;100.00;96337.97;4991319;28;20046;-87
2023/10/03 08:14:17;;;;;;;0.10;0.10;;;;;;;17.42;100.00;96335.34;4973706;28;20818;-85
2023/10/03 08:17:03;;;;;;;0.10;0.10;;;;;;;17.52;100.00;96333.28;4987372;28;20053;-84
2023/10/03 08:19:49;;;;;;;0.10;0.10;;;;;;;17.77;100.00;96340.19;4988439;28;20049;-84
2023/10/03 08:22:41;;;;;;;0.10;0.10;;;;;;;18.00;100.00;96343.06;4972025;28;20109;-85
2023/10/03 08:25:27;;;;;;;0.10;0.10;;;;;;;18.15;100.00;96350.91;4988971;28;20595;-85
2023/10/03 08:28:20;;;;;;;0.10;0.10;;;;;;;18.19;100.00;96360.00;4987992;28;20089;-84
2023/10/03 08:31:07;;;;;;;0.10;0.10;;;;;;;17.92;100.00;96344.53;4990535;28;20096;-84
2023/10/03 08:33:55;;;;;;;0.10;0.10;;;;;;;17.88;100.00;96361.66;4975762;28;20342;-83
2023/10/03 08:36:41;;;;;;;0.10;0.10;;;;;;;17.74;100.00;96357.03;4990753;28;20058;-85
2023/10/03 08:39:32;;;;;;;0.10;0.10;;;;;;;17.67;100.00;96363.91;4991022;28;20717;-85
2023/10/03 08:42:35;;;;;;;0.10;0.10;;;;;;;17.55;100.00;96343.50;4989789;28;20053;-86
2023/10/03 08:45:25;;;;;;;0.10;0.10;;;;;;;17.65;100.00;96355.25;4990155;28;20288;-85
2023/10/03 08:48:11;;;;;;;0.10;0.10;;;;;;;17.96;100.00;96369.91;4989102;28;20041;-85
2023/10/03 08:50:58;;;;;;;0.10;0.10;;;;;;;18.37;100.00;96377.31;4987444;28;20052;-85
2023/10/03 08:53:48;;;;;;;0.10;0.10;;;;;;;18.50;100.00;96381.09;4988531;28;20131;-84
2023/10/03 08:56:35;;;;;;;0.10;0.10;;;;;;;19.08;100.00;96384.03;4989628;28;20115;-85
2023/10/03 08:59:21;;;;;;;0.10;0.10;;;;;;;19.15;100.00;96381.69;4990114;28;20111;-85
2023/10/03 09:02:11;;;;;;;0.10;0.10;;;;;;;19.34;100.00;96383.44;4987290;28;20509;-85
2023/10/03 09:04:59;;;;;;;0.10;0.10;;;;;;;19.33;100.00;96392.69;4989683;28;20042;-85
2023/10/03 09:07:49;;;;;;;0.10;0.10;;;;;;;18.64;100.00;96393.56;4989419;28;20049;-85
2023/10/03 09:10:50;;;;;;;0.10;0.10;;;;;;;18.56;100.00;96380.72;4989589;28;20042;-85
2023/10/03 09:13:36;;;;;;;0.10;0.10;;;;;;;18.77;100.00;96373.00;4987049;28;20046;-84
2023/10/03 09:16:23;;;;;;;0.10;0.10;;;;;;;18.59;100.00;96358.41;4988239;28;20670;-84
2023/10/03 09:19:11;;;;;;;0.08;0.08;;;;;;;18.32;100.00;96374.69;4989110;28;20160;-84
2023/10/03 09:22:00;;;;;;;0.10;0.10;;;;;;;18.24;100.00;96372.66;4989086;28;20049;-84
2023/10/03 09:24:46;;;;;;;0.10;0.10;;;;;;;18.31;100.00;96367.66;4988401;28;20133;-84
2023/10/03 09:27:32;;;;;;;0.10;0.10;;;;;;;18.29;100.00;96367.97;4988193;28;20041;-86
2023/10/03 09:30:23;;;;;;;0.10;0.10;;;;;;;18.47;100.00;96377.09;4987696;28;20041;-84
2023/10/03 09:33:11;;;;;;;0.00;0.00;;;;;;;18.44;100.00;96391.22;4987755;28;20045;-86
2023/10/03 09:36:02;;;;;;;0.00;0.00;;;;;;;18.33;100.00;96382.50;4988622;28;20829;-86
2023/10/03 09:38:48;;;;;;;0.03;0.03;;;;;;;18.36;100.00;96373.81;4987485;28;20045;-85
2023/10/03 09:41:38;;;;;;;0.10;0.10;;;;;;;18.31;100.00;96382.00;4987379;28;20045;-84
2023/10/03 09:44:30;;;;;;;0.13;0.13;;;;;;;18.60;100.00;96375.50;4988603;28;20045;-84
2023/10/03 09:47:19;;;;;;;0.10;0.10;;;;;;;18.55;100.00;96394.56;4989475;28;20076;-84
2023/10/03 09:50:07;;;;;;;0.10;0.10;;;;;;;18.89;100.00;96389.56;4985766;28;20747;-85
2023/10/03 09:53:01;;;;;;;0.00;0.00;;;;;;;18.99;100.00;96380.41;4989005;28;20462;-85
2023/10/03 09:55:49;;;;;;;0.10;0.10;;;;;;;19.16;100.00;96383.28;4987582;28;20167;-84
2023/10/03 09:58:36;;;;;;;0.10;0.10;;;;;;;19.13;100.00;96383.88;4989937;28;20113;-84
2023/10/03 10:01:21;;;;;;;0.10;0.10;;;;;;;19.14;100.00;96390.94;4988374;28;20573;-84
2023/10/03 10:04:10;;;;;;;0.00;0.00;;;;;;;19.29;100.00;96391.69;4973955;28;20042;-85
2023/10/03 10:07:16;;;;;;;0.10;0.10;;;;;;;19.50;100.00;96392.84;4972270;28;20060;-86
2023/10/03 10:10:11;;;;;;;0.10;0.10;;;;;;;19.28;100.00;96390.88;4990215;28;20835;-86
2023/10/03 10:13:12;;;;;;;0.10;0.10;;;;;;;19.13;100.00;96397.44;4993763;28;20058;-85
2023/10/03 10:16:00;;;;;;;0.10;0.10;;;;;;;18.81;100.00;96417.38;4993382;28;20050;-84
2023/10/03 10:18:46;;;;;;;0.10;0.10;;;;;;;18.53;100.00;96421.97;4976978;28;20046;-85
2023/10/03 10:21:37;;;;;;;0.13;0.13;;;;;;;18.07;100.00;96416.56;4988799;28;20046;-86
2023/10/03 10:24:28;;;;;;;0.10;0.10;;;;;;;17.72;100.00;96410.63;4993453;28;20060;-85
2023/10/03 10:27:21;;;;;;;0.03;0.03;;;;;;;17.96;100.00;96413.22;4992495;28;20038;-86
2023/10/03 10:30:13;;;;;;;0.10;0.10;;;;;;;17.92;100.00;96406.81;4991741;28;20101;-84
2023/10/03 10:33:17;;;;;;;0.10;0.10;;;;;;;17.88;100.00;96403.06;4989281;28;20073;-86
2023/10/03 10:36:03;;;;;;;0.10;0.10;;;;;;;17.61;100.00;96408.38;4990556;28;20646;-86
2023/10/03 10:38:52;;;;;;;0.10;0.10;;;;;;;17.76;100.00;96416.28;4979553;28;20038;-83
2023/10/03 10:41:37;;;;;;;0.10;0.10;;;;;;;17.86;100.00;96416.09;4944304;28;20694;-83
2023/10/03 10:44:27;;;;;;;0.10;0.10;;;;;;;18.28;100.00;96422.41;4987651;28;20100;-83
2023/10/03 10:47:14;;;;;;;0.10;0.10;;;;;;;18.29;100.00;96430.25;4989644;28;20057;-86
2023/10/03 10:50:00;;;;;;;0.10;0.10;;;;;;;18.21;100.00;96417.41;4991121;28;20073;-84
2023/10/03 10:52:53;;;;;;;0.00;0.00;;;;;;;18.13;100.00;96411.84;4978318;28;20052;-84
2023/10/03 10:55:39;;;;;;;0.10;0.10;;;;;;;18.17;100.00;96407.47;4992054;28;20646;-84
2023/10/03 10:58:25;;;;;;;0.10;0.10;;;;;;;18.08;100.00;96408.16;4991478;28;20046;-84
2023/10/03 11:01:13;;;;;;;0.10;0.10;;;;;;;18.07;100.00;96400.31;4993058;28;20050;-84
2023/10/03 11:03:59;;;;;;;0.03;0.03;;;;;;;18.20;100.00;96398.72;4990717;28;20037;-85
2023/10/03 11:06:49;;;;;;;0.10;0.10;;;;;;;18.48;100.00;96396.88;4991070;28;20790;-86
2023/10/03 11:09:37;;;;;;;0.00;0.00;;;;;;;18.74;100.00;96399.91;4989541;28;20879;-86
2023/10/03 11:12:28;;;;;;;0.20;0.20;;;;;;;19.07;100.00;96387.03;4981680;28;20093;-85
2023/10/03 11:15:15;;;;;;;0.10;0.10;;;;;;;18.91;100.00;96375.72;4988379;28;20041;-85
2023/10/03 11:18:01;;;;;;;0.10;0.10;;;;;;;19.02;100.00;96377.09;5003977;28;20838;-85
2023/10/03 11:20:47;;;;;;;0.10;0.10;;;;;;;19.12;100.00;96373.34;4993289;28;20048;-84
2023/10/03 11:23:34;;;;;;;0.10;0.10;;;;;;;19.53;100.00;96359.66;4988636;28;20056;-85
2023/10/03 11:26:20;;;;;;;0.03;0.03;;;;;;;19.14;100.00;96380.09;4991349;28;20568;-86
2023/10/03 11:29:06;;;;;;;0.10;0.10;;;;;;;18.74;100.00;96380.94;4990385;28;20058;-86
2023/10/03 11:31:51;;;;;;;0.10;0.10;;;;;;;18.57;100.00;96376.91;4990579;28;20095;-82
2023/10/03 11:34:40;;;;;;;0.10;0.10;;;;;;;18.40;100.00;96374.00;4989880;28;20034;-83
2023/10/03 11:37:36;;;;;;;0.10;0.10;;;;;;;18.18;100.00;96390.91;4994103;28;20599;-83
2023/10/03 11:40:23;;;;;;;0.10;0.10;;;;;;;17.88;100.00;96405.78;4976276;28;20077;-85
2023/10/03 11:43:09;;;;;;;0.10;0.10;;;;;;;17.35;100.00;96410.63;4961460;28;20085;-84
2023/10/03 11:45:56;;;;;;;0.10;0.10;;;;;;;17.29;100.00;96390.97;4986828;28;20038;-85
2023/10/03 11:48:41;;;;;;;0.10;0.10;;;;;;;17.19;100.00;96386.50;4990603;28;20141;-83
2023/10/03 11:51:29;;;;;;;0.10;0.10;;;;;;;17.07;100.00;96398.88;4992619;28;20147;-85
2023/10/03 11:54:15;;;;;;;0.10;0.10;;;;;;;16.93;100.00;96394.16;4992108;28;20140;-84
2023/10/03 11:57:03;;;;;;;0.10;0.10;;;;;;;16.53;100.00;96387.34;4989612;28;20041;-83
2023/10/03 11:59:49;;;;;;;0.10;0.10;;;;;;;16.68;100.00;96392.56;4986945;28;20266;-83
2023/10/03 12:02:39;;;;;;;0.10;0.10;;;;;;;16.87;100.00;96384.50;4987874;28;20052;-84
2023/10/03 12:05:27;;;;;;;0.10;0.10;;;;;;;16.85;100.00;96380.50;4991614;28;20096;-81
2023/10/03 12:08:13;;;;;;;0.10;0.10;;;;;;;17.02;100.00;96385.41;4992953;28;20081;-87
2023/10/03 12:10:59;;;;;;;0.10;0.10;;;;;;;16.93;100.00;96390.66;4992117;28;20587;-84
2023/10/03 12:13:44;;;;;;;0.10;0.10;;;;;;;17.10;100.00;96404.47;4992107;28;20045;-86
2023/10/03 12:16:30;;;;;;;0.10;0.10;;;;;;;16.97;100.00;96395.22;4991001;28;20050;-85
2023/10/03 12:19:18;;;;;;;0.10;0.10;;;;;;;16.58;100.00;96408.09;4979143;28;20700;-85
2023/10/03 12:22:04;;;;;;;0.10;0.10;;;;;;;16.63;100.00;96419.63;4991657;28;20140;-84
2023/10/03 12:24:51;;;;;;;0.10;0.10;;;;;;;16.44;100.00;96446.59;4990830;28;20034;-86
2023/10/03 12:27:38;;;;;;;0.10;0.10;;;;;;;16.09;100.00;96457.72;4993545;28;20050;-84
2023/10/03 12:30:25;;;;;;;0.10;0.10;;;;;;;15.92;100.00;96458.13;4987065;28;20049;-84
2023/10/03 12:33:16;;;;;;;0.00;0.00;;;;;;;15.90;100.00;96463.00;4990777;28;20607;-85
2023/10/03 12:36:03;;;;;;;0.10;0.10;;;;;;;15.82;100.00;96447.41;4990811;28;20571;-85
2023/10/03 12:38:49;;;;;;;0.10;0.10;;;;;;;15.69;100.00;96451.53;4974646;28;20042;-85
2023/10/03 12:41:34;;;;;;;0.10;0.10;;;;;;;15.64;100.00;96445.38;4962798;28;20141;-85
2023/10/03 12:44:21;;;;;;;0.10;0.10;;;;;;;15.66;100.00;96471.00;4988336;28;20037;-83
2023/10/03 12:47:06;;;;;;;0.03;0.03;;;;;;;15.74;100.00;96472.28;4990711;28;20042;-85
2023/10/03 12:49:52;;;;;;;0.00;0.00;;;;;;;15.88;100.00;96466.00;4989903;28;20049;-84
2023/10/03 12:52:39;;;;;;;0.10;0.10;;;;;;;15.76;100.00;96486.31;4991909;28;20050;-85
2023/10/03 12:55:26;;;;;;;0.10;0.10;;;;;;;15.97;100.00;96473.47;4991191;28;20106;-85
2023/10/03 12:58:18;;;;;;;0.10;0.10;;;;;;;15.73;100.00;96474.19;4992208;28;20048;-84
2023/10/03 13:01:04;;;;;;;0.10;0.10;;;;;;;15.61;100.00;96473.72;4990452;28;20048;-83